createdAt,value
2019-02-04T00:01:43.581Z,-0.61
2019-02-04T00:04:15.367Z,-0.62
2019-02-04T00:06:46.754Z,-0.58
2019-02-04T00:09:17.822Z,-0.58
2019-02-04T00:11:49.015Z,-0.47
2019-02-04T00:14:20.173Z,-0.53
2019-02-04T00:16:51.436Z,-0.83
2019-02-04T00:19:23.575Z,-0.71
2019-02-04T00:21:54.767Z,-0.62
2019-02-04T00:24:25.843Z,-0.74
2019-02-04T00:26:56.967Z,-0.66
2019-02-04T00:29:28.045Z,-0.69
2019-02-04T00:31:59.134Z,-0.53
2019-02-04T00:34:30.381Z,-0.62
2019-02-04T00:37:01.491Z,-0.82
2019-02-04T00:39:32.559Z,-0.82
2019-02-04T00:42:04.007Z,-0.70
2019-02-04T00:44:35.115Z,-0.79
2019-02-04T00:47:06.455Z,-0.85
2019-02-04T00:49:37.597Z,-0.78
2019-02-04T00:52:08.924Z,-0.86
2019-02-04T00:54:40.116Z,-0.82
2019-02-04T00:57:11.273Z,-0.85
2019-02-04T00:59:42.469Z,-0.82
2019-02-04T01:02:13.932Z,-0.89
2019-02-04T01:04:44.933Z,-0.90
2019-02-04T01:07:16.210Z,-0.91
2019-02-04T01:09:47.506Z,-1.03
2019-02-04T01:12:18.688Z,-0.95
2019-02-04T01:14:49.760Z,-0.96
2019-02-04T01:17:20.942Z,-0.78
2019-02-04T01:19:53.667Z,-0.85
2019-02-04T01:22:24.762Z,-0.97
2019-02-04T01:24:55.919Z,-0.92
2019-02-04T01:27:26.971Z,-0.85
2019-02-04T01:29:58.164Z,-0.94
2019-02-04T01:32:29.204Z,-0.89
2019-02-04T01:35:00.285Z,-0.97
2019-02-04T01:37:31.354Z,-0.80
2019-02-04T01:40:02.819Z,-0.97
2019-02-04T01:42:34.186Z,-1.02
2019-02-04T01:45:07.305Z,-1.05
2019-02-04T01:47:38.483Z,-0.99
2019-02-04T01:50:11.630Z,-0.97
2019-02-04T01:52:43.146Z,-1.11
2019-02-04T01:55:14.414Z,-1.10
2019-02-04T01:57:46.917Z,-1.33
2019-02-04T02:00:20.894Z,-1.29
2019-02-04T02:02:52.291Z,-1.04
2019-02-04T02:05:23.422Z,-0.97
2019-02-04T02:07:54.779Z,-0.98
2019-02-04T02:10:27.929Z,-0.94
2019-02-04T02:12:59.087Z,-1.02
2019-02-04T02:15:30.272Z,-1.05
2019-02-04T02:18:01.479Z,-1.17
2019-02-04T02:20:33.802Z,-1.17
2019-02-04T02:23:05.437Z,-1.02
2019-02-04T02:25:36.592Z,-0.97
2019-02-04T02:28:08.191Z,-0.98
2019-02-04T02:30:39.387Z,-1.06
2019-02-04T02:33:10.545Z,-0.92
2019-02-04T02:35:41.543Z,-0.88
2019-02-04T02:38:12.996Z,-1.08
2019-02-04T02:40:44.506Z,-1.06
2019-02-04T02:43:15.618Z,-1.06
2019-02-04T02:45:46.715Z,-0.88
2019-02-04T02:48:17.940Z,-0.73
2019-02-04T02:50:49.016Z,-0.72
2019-02-04T02:53:20.420Z,-0.59
2019-02-04T02:55:51.534Z,-0.84
2019-02-04T02:58:22.552Z,-0.79
2019-02-04T03:00:53.739Z,-0.75
2019-02-04T03:03:24.734Z,-0.70
2019-02-04T03:05:55.744Z,-0.61
2019-02-04T03:08:26.835Z,-0.62
2019-02-04T03:10:58.093Z,-0.65
2019-02-04T03:13:29.219Z,-0.65
2019-02-04T03:16:00.244Z,-0.55
2019-02-04T03:18:31.451Z,-0.54
2019-02-04T03:21:02.615Z,-0.60
2019-02-04T03:23:33.762Z,-0.66
2019-02-04T03:26:05.995Z,-0.65
2019-02-04T03:28:37.010Z,-0.65
2019-02-04T03:31:08.556Z,-0.84
2019-02-04T03:33:39.749Z,-0.84
2019-02-04T03:36:10.902Z,-0.79
2019-02-04T03:38:42.039Z,-0.73
2019-02-04T03:41:13.034Z,-0.65
2019-02-04T03:43:44.524Z,-0.38
2019-02-04T03:46:15.746Z,-0.54
2019-02-04T03:48:46.950Z,-0.54
2019-02-04T03:51:18.022Z,-0.49
2019-02-04T03:53:49.111Z,-0.54
2019-02-04T03:56:20.576Z,-0.57
2019-02-04T03:58:51.687Z,-0.63
2019-02-04T04:01:22.835Z,-0.45
2019-02-04T04:03:54.015Z,-0.54
2019-02-04T04:06:25.155Z,-0.50
2019-02-04T04:08:56.519Z,-0.38
2019-02-04T04:11:27.527Z,-0.49
2019-02-04T04:13:58.650Z,-0.51
2019-02-04T04:16:29.735Z,-0.57
2019-02-04T04:19:00.923Z,-0.61
2019-02-04T04:21:32.337Z,-0.51
2019-02-04T04:24:03.549Z,-0.35
2019-02-04T04:26:34.639Z,-0.43
2019-02-04T04:29:06.778Z,-0.50
2019-02-04T04:31:37.866Z,-0.42
2019-02-04T04:34:09.307Z,-0.51
2019-02-04T04:36:40.392Z,-0.56
2019-02-04T04:39:11.573Z,-0.65
2019-02-04T04:41:42.652Z,-0.77
2019-02-04T04:44:13.841Z,-0.74
2019-02-04T04:46:45.428Z,-0.67
2019-02-04T04:49:16.450Z,-0.69
2019-02-04T04:51:47.533Z,-0.63
2019-02-04T04:54:18.721Z,-0.55
2019-02-04T04:56:49.913Z,-0.58
2019-02-04T04:59:21.341Z,-0.61
2019-02-04T05:01:52.783Z,-0.61
2019-02-04T05:04:23.864Z,-0.59
2019-02-04T05:06:56.044Z,-0.60
2019-02-04T05:09:27.219Z,-0.59
2019-02-04T05:11:58.678Z,-0.64
2019-02-04T05:14:29.894Z,-0.57
2019-02-04T05:17:00.967Z,-0.49
2019-02-04T05:19:32.058Z,-0.57
2019-02-04T05:22:03.123Z,-0.58
2019-02-04T05:24:34.186Z,-0.64
2019-02-04T05:27:05.436Z,-0.49
2019-02-04T05:29:36.608Z,-0.59
2019-02-04T05:32:07.755Z,-0.66
2019-02-04T05:34:38.883Z,-0.49
2019-02-04T05:37:10.068Z,-0.63
2019-02-04T05:39:41.220Z,-0.53
2019-02-04T05:42:12.414Z,-0.42
2019-02-04T05:44:44.509Z,-0.35
2019-02-04T05:47:15.667Z,-0.62
2019-02-04T05:49:46.676Z,-0.57
2019-02-04T05:52:17.911Z,-0.44
2019-02-04T05:54:49.002Z,-0.49
2019-02-04T05:57:20.070Z,-0.50
2019-02-04T05:59:51.250Z,-0.47
2019-02-04T06:02:22.415Z,-0.48
2019-02-04T06:04:53.511Z,-0.58
2019-02-04T06:07:24.678Z,-0.52
2019-02-04T06:09:58.558Z,-0.65
2019-02-04T06:12:29.816Z,-0.52
2019-02-04T06:15:01.106Z,-0.44
2019-02-04T06:17:32.210Z,-0.45
2019-02-04T06:20:05.563Z,-0.42
2019-02-04T06:22:36.767Z,-0.36
2019-02-04T06:25:07.976Z,-0.26
2019-02-04T06:27:39.043Z,-0.78
2019-02-04T06:30:11.064Z,-0.29
2019-02-04T06:32:42.102Z,-0.28
2019-02-04T06:35:13.698Z,-0.23
2019-02-04T06:37:46.831Z,-0.43
2019-02-04T06:40:17.943Z,-0.38
2019-02-04T06:42:49.343Z,-0.31
2019-02-04T06:45:20.525Z,-0.36
2019-02-04T06:47:51.988Z,-0.29
2019-02-04T06:50:23.550Z,-0.34
2019-02-04T06:52:55.726Z,-0.34
2019-02-04T06:55:29.684Z,-0.43
2019-02-04T06:58:00.939Z,-0.38
2019-02-04T07:00:32.292Z,-0.36
2019-02-04T07:03:03.693Z,-0.16
2019-02-04T07:05:43.447Z,-0.06
2019-02-04T07:08:07.929Z,-0.12
2019-02-04T07:10:39.207Z,-0.17
2019-02-04T07:13:10.379Z,-0.10
2019-02-04T07:15:41.818Z,-0.16
2019-02-04T07:18:13.864Z,-0.11
2019-02-04T07:20:45.174Z,-0.17
2019-02-04T07:23:16.340Z,-0.10
2019-02-04T07:25:47.515Z,-0.26
2019-02-04T07:28:19.107Z,-0.09
2019-02-04T07:30:50.265Z,0.02
2019-02-04T07:33:21.337Z,0.16
2019-02-04T07:35:52.413Z,0.27
2019-02-04T07:38:23.641Z,0.29
2019-02-04T07:40:54.849Z,0.35
2019-02-04T07:43:25.952Z,0.35
2019-02-04T07:45:57.194Z,0.40
2019-02-04T07:48:28.266Z,0.38
2019-02-04T07:50:59.358Z,0.36
2019-02-04T07:53:30.417Z,0.40
2019-02-04T07:56:01.505Z,0.56
2019-02-04T07:58:32.634Z,0.60
2019-02-04T08:01:03.877Z,0.66
2019-02-04T08:03:35.065Z,0.74
2019-02-04T08:06:06.246Z,0.72
2019-02-04T08:08:37.321Z,0.76
2019-02-04T08:11:08.647Z,0.76
2019-02-04T08:13:39.650Z,0.80
2019-02-04T08:16:10.882Z,0.71
2019-02-04T08:18:42.036Z,0.70
2019-02-04T08:21:13.195Z,0.81
2019-02-04T08:23:44.313Z,1.16
2019-02-04T08:26:15.422Z,1.52
2019-02-04T08:28:46.571Z,1.92
2019-02-04T08:31:17.656Z,1.99
2019-02-04T08:33:48.750Z,1.92
2019-02-04T08:36:20.006Z,1.89
2019-02-04T08:38:51.153Z,1.89
2019-02-04T08:41:22.351Z,1.73
2019-02-04T08:43:53.381Z,1.75
2019-02-04T08:46:24.900Z,1.73
2019-02-04T08:48:56.026Z,1.84
2019-02-04T08:51:27.094Z,1.93
2019-02-04T08:53:58.146Z,2.11
2019-02-04T08:56:29.299Z,2.21
2019-02-04T08:59:00.282Z,2.35
2019-02-04T09:01:31.620Z,2.20
2019-02-04T09:04:02.784Z,2.23
2019-02-04T09:06:33.925Z,2.37
2019-02-04T09:09:08.551Z,2.43
2019-02-04T09:11:40.470Z,2.43
2019-02-04T09:14:11.678Z,2.51
2019-02-04T09:16:42.860Z,2.72
2019-02-04T09:19:14.087Z,3.04
2019-02-04T09:21:45.239Z,3.26
2019-02-04T09:24:16.217Z,3.70
2019-02-04T09:26:47.494Z,4.05
2019-02-04T09:29:18.656Z,4.12
2019-02-04T09:31:50.871Z,4.16
2019-02-04T09:34:21.936Z,3.81
2019-02-04T09:36:53.148Z,3.91
2019-02-04T09:39:24.579Z,4.17
2019-02-04T09:41:55.835Z,4.30
2019-02-04T09:44:27.034Z,4.23
2019-02-04T09:46:58.159Z,4.22
2019-02-04T09:49:29.251Z,3.84
2019-02-04T09:52:00.678Z,3.94
2019-02-04T09:54:31.750Z,3.75
2019-02-04T09:57:02.876Z,3.95
2019-02-04T09:59:33.939Z,4.04
2019-02-04T10:02:05.307Z,4.11
2019-02-04T10:04:36.765Z,3.83
2019-02-04T10:07:08.002Z,4.35
2019-02-04T10:09:39.210Z,4.74
2019-02-04T10:12:10.390Z,4.72
2019-02-04T10:14:41.719Z,4.48
2019-02-04T10:17:13.194Z,4.32
2019-02-04T10:19:44.417Z,4.32
2019-02-04T10:22:15.538Z,4.20
2019-02-04T10:24:46.627Z,4.24
2019-02-04T10:27:17.777Z,4.40
2019-02-04T10:29:49.370Z,4.39
2019-02-04T10:32:20.594Z,4.16
2019-02-04T10:34:51.717Z,4.31
2019-02-04T10:37:22.839Z,4.10
2019-02-04T10:39:53.935Z,4.28
2019-02-04T10:42:25.817Z,4.30
2019-02-04T10:44:57.088Z,4.52
2019-02-04T10:47:28.315Z,4.87
2019-02-04T10:49:59.379Z,5.03
2019-02-04T10:52:30.604Z,5.54
2019-02-04T10:55:02.138Z,5.64
2019-02-04T10:57:40.345Z,5.78
2019-02-04T11:00:08.377Z,5.69
2019-02-04T11:02:39.518Z,5.27
2019-02-04T11:05:13.207Z,5.60
2019-02-04T11:07:44.823Z,4.93
2019-02-04T11:10:17.244Z,4.95
2019-02-04T11:12:48.756Z,4.49
2019-02-04T11:15:20.234Z,4.63
2019-02-04T11:17:51.505Z,5.17
2019-02-04T11:20:25.796Z,5.26
2019-02-04T11:22:57.664Z,5.50
2019-02-04T11:25:28.853Z,5.43
2019-02-04T11:28:00.604Z,5.40
2019-02-04T11:30:37.363Z,5.24
2019-02-04T11:33:08.667Z,5.44
2019-02-04T11:35:39.933Z,5.89
2019-02-04T11:38:11.116Z,6.50
2019-02-04T11:40:42.409Z,6.65
2019-02-04T11:43:15.190Z,6.79
2019-02-04T11:45:46.440Z,7.69
2019-02-04T11:48:17.971Z,7.73
2019-02-04T11:50:49.282Z,7.17
2019-02-04T11:53:31.909Z,7.57
2019-02-04T11:55:53.243Z,8.83
2019-02-04T11:58:24.493Z,9.41
2019-02-04T12:00:55.737Z,9.76
2019-02-04T12:03:26.957Z,10.33
2019-02-04T12:05:58.101Z,9.45
2019-02-04T12:08:29.536Z,9.21
2019-02-04T12:11:08.929Z,9.80
2019-02-04T12:13:40.102Z,8.98
2019-02-04T12:16:11.388Z,8.89
2019-02-04T12:18:42.594Z,8.44
2019-02-04T12:21:21.167Z,6.50
2019-02-04T12:23:46.658Z,7.87
2019-02-04T12:26:17.807Z,9.54
2019-02-04T12:28:49.930Z,13.49
2019-02-04T12:31:21.098Z,17.12
2019-02-04T12:33:52.225Z,17.36
2019-02-04T12:36:23.304Z,14.74
2019-02-04T12:38:54.522Z,15.81
2019-02-04T12:41:25.676Z,12.61
2019-02-04T12:43:56.935Z,11.32
2019-02-04T12:46:27.997Z,10.14
2019-02-04T12:48:59.102Z,10.30
2019-02-04T12:51:33.680Z,10.43
2019-02-04T12:54:03.116Z,10.40
2019-02-04T12:56:34.268Z,10.33
2019-02-04T12:59:05.851Z,9.03
2019-02-04T13:01:37.084Z,13.48
2019-02-04T13:04:08.481Z,12.17
2019-02-04T13:06:39.550Z,11.98
2019-02-04T13:09:10.782Z,12.03
2019-02-04T13:11:41.942Z,12.99
2019-02-04T13:14:13.097Z,12.84
2019-02-04T13:16:44.482Z,15.69
2019-02-04T13:19:15.538Z,15.48
2019-02-04T13:21:46.699Z,16.62
2019-02-04T13:24:17.926Z,17.07
2019-02-04T13:26:49.042Z,15.39
2019-02-04T13:29:20.248Z,17.63
2019-02-04T13:31:51.455Z,21.20
2019-02-04T13:34:22.639Z,19.99
2019-02-04T13:36:53.716Z,20.85
2019-02-04T13:39:24.874Z,23.15
2019-02-04T13:41:56.238Z,24.14
2019-02-04T13:44:28.402Z,23.33
2019-02-04T13:46:59.573Z,25.92
2019-02-04T13:49:30.661Z,26.49
2019-02-04T13:52:01.916Z,24.05
2019-02-04T13:54:33.005Z,26.37
2019-02-04T13:57:04.094Z,26.20
2019-02-04T13:59:35.228Z,25.58
2019-02-04T14:02:06.790Z,24.12
2019-02-04T14:04:37.988Z,21.62
2019-02-04T14:07:09.058Z,23.22
2019-02-04T14:09:40.311Z,23.76
2019-02-04T14:12:11.467Z,22.89
2019-02-04T14:14:43.459Z,20.31
2019-02-04T14:17:14.613Z,19.99
2019-02-04T14:19:45.778Z,21.90
2019-02-04T14:22:16.962Z,21.95
2019-02-04T14:24:48.535Z,20.25
2019-02-04T14:27:19.616Z,21.67
2019-02-04T14:29:50.723Z,22.96
2019-02-04T14:32:21.913Z,22.77
2019-02-04T14:34:54.703Z,23.32
2019-02-04T14:37:25.874Z,22.28
2019-02-04T14:39:57.028Z,24.28
2019-02-04T14:42:28.247Z,23.60
2019-02-04T14:45:26.376Z,23.37
2019-02-04T14:48:06.932Z,23.69
2019-02-04T14:51:06.562Z,23.82
2019-02-04T14:54:16.850Z,23.98
2019-02-04T14:57:25.244Z,23.40
2019-02-04T15:00:34.044Z,22.30
2019-02-04T15:03:20.382Z,21.17
2019-02-04T15:06:09.721Z,19.96
2019-02-04T15:09:11.225Z,18.87
2019-02-04T15:12:15.197Z,15.58
2019-02-04T15:15:09.931Z,13.33
2019-02-04T15:18:10.139Z,13.84
2019-02-04T15:21:25.788Z,13.32
2019-02-04T15:24:33.953Z,12.53
2019-02-04T15:28:01.694Z,11.67
2019-02-04T15:31:07.538Z,10.38
2019-02-04T15:34:24.562Z,8.36
2019-02-04T15:37:12.088Z,7.02
2019-02-04T15:40:29.656Z,5.64
2019-02-04T15:43:25.329Z,4.68
2019-02-04T15:46:12.514Z,4.32
2019-02-04T15:49:14.517Z,4.01
2019-02-04T15:51:53.668Z,3.52
2019-02-04T15:54:24.809Z,3.14
2019-02-04T15:56:56.802Z,2.65
2019-02-04T15:59:27.885Z,2.53
2019-02-04T16:01:59.476Z,2.38
2019-02-04T16:04:32.737Z,2.15
2019-02-04T16:07:06.452Z,1.95
2019-02-04T16:09:37.700Z,1.95
2019-02-04T16:12:09.366Z,1.66
2019-02-04T16:14:40.532Z,1.58
2019-02-04T16:17:12.437Z,1.37
2019-02-04T16:19:43.516Z,1.37
2019-02-04T16:22:14.800Z,1.12
2019-02-04T16:24:46.235Z,0.92
2019-02-04T16:27:17.271Z,0.89
2019-02-04T16:29:48.351Z,0.86
2019-02-04T16:32:19.535Z,0.74
2019-02-04T16:34:50.600Z,0.54
2019-02-04T16:37:21.702Z,0.49
2019-02-04T16:39:53.239Z,0.63
2019-02-04T16:42:24.424Z,0.72
2019-02-04T16:44:56.164Z,0.48
2019-02-04T16:47:27.319Z,0.37
2019-02-04T16:49:58.527Z,0.31
2019-02-04T16:52:30.036Z,0.30
2019-02-04T16:55:01.135Z,0.40
2019-02-04T16:57:32.502Z,0.35
2019-02-04T17:00:04.244Z,0.23
2019-02-04T17:02:36.458Z,0.18
2019-02-04T17:05:10.151Z,0.03
2019-02-04T17:07:41.331Z,0.02
2019-02-04T17:10:16.400Z,0.01
2019-02-04T17:12:50.674Z,0.24
2019-02-04T17:15:22.009Z,0.14
2019-02-04T17:17:53.093Z,0.00
2019-02-04T17:20:26.729Z,-0.16
2019-02-04T17:22:58.201Z,-0.15
2019-02-04T17:25:29.383Z,-0.17
2019-02-04T17:28:00.659Z,-0.28
2019-02-04T17:30:32.037Z,-0.32
2019-02-04T17:33:03.341Z,-0.23
2019-02-04T17:35:34.539Z,-0.48
2019-02-04T17:38:05.798Z,-0.57
2019-02-04T17:40:37.021Z,-0.43
2019-02-04T17:43:08.125Z,-0.58
2019-02-04T17:45:39.411Z,-0.53
2019-02-04T17:48:10.558Z,-0.54
2019-02-04T17:50:41.840Z,-0.69
2019-02-04T17:53:13.081Z,-0.56
2019-02-04T17:55:44.447Z,-0.57
2019-02-04T17:58:17.328Z,-0.73
2019-02-04T18:00:50.455Z,-0.72
2019-02-04T18:03:21.625Z,-0.77
2019-02-04T18:05:52.740Z,-0.74
2019-02-04T18:08:23.831Z,-0.83
2019-02-04T18:10:54.912Z,-0.90
2019-02-04T18:13:26.989Z,-1.00
2019-02-04T18:15:58.099Z,-1.07
2019-02-04T18:18:29.293Z,-1.11
2019-02-04T18:21:00.400Z,-1.04
2019-02-04T18:23:31.474Z,-1.10
2019-02-04T18:26:02.588Z,-1.12
2019-02-04T18:28:33.760Z,-1.19
2019-02-04T18:31:05.059Z,-1.45
2019-02-04T18:33:36.474Z,-1.39
2019-02-04T18:36:07.620Z,-1.33
2019-02-04T18:38:38.771Z,-1.31
2019-02-04T18:41:09.990Z,-1.19
2019-02-04T18:43:41.059Z,-1.22
2019-02-04T18:46:12.346Z,-1.39
2019-02-04T18:48:45.198Z,-1.35
2019-02-04T18:51:16.394Z,-1.31
2019-02-04T18:53:57.457Z,-1.26
2019-02-04T18:56:20.413Z,-1.26
2019-02-04T18:58:51.582Z,-1.33
2019-02-04T19:01:22.685Z,-1.29
2019-02-04T19:03:54.924Z,-1.37
2019-02-04T19:06:26.361Z,-1.47
2019-02-04T19:08:57.372Z,-1.47
2019-02-04T19:11:28.555Z,-1.32
2019-02-04T19:13:59.635Z,-1.48
2019-02-04T19:16:30.811Z,-1.30
2019-02-04T19:19:01.806Z,-1.42
2019-02-04T19:21:33.012Z,-1.47
2019-02-04T19:24:09.643Z,-1.56
2019-02-04T19:26:37.236Z,-1.67
2019-02-04T19:29:08.369Z,-1.63
2019-02-04T19:31:39.563Z,-1.54
2019-02-04T19:34:10.721Z,-1.72
2019-02-04T19:36:41.820Z,-1.64
2019-02-04T19:39:14.227Z,-1.71
2019-02-04T19:41:45.423Z,-1.88
2019-02-04T19:44:16.594Z,-2.10
2019-02-04T19:46:48.047Z,-2.01
2019-02-04T19:49:19.161Z,-1.99
2019-02-04T19:51:50.301Z,-2.07
2019-02-04T19:54:21.846Z,-2.17
2019-02-04T19:56:54.744Z,-2.09
2019-02-04T19:59:26.216Z,-2.19
2019-02-04T20:01:57.380Z,-2.24
2019-02-04T20:04:28.553Z,-2.33
2019-02-04T20:06:59.676Z,-2.27
2019-02-04T20:09:30.848Z,-2.25
2019-02-04T20:12:02.319Z,-2.39
2019-02-04T20:14:33.419Z,-2.48
2019-02-04T20:17:04.905Z,-2.46
2019-02-04T20:19:36.330Z,-2.45
2019-02-04T20:22:07.628Z,-2.33
2019-02-04T20:24:39.107Z,-2.35
2019-02-04T20:27:10.395Z,-2.35
2019-02-04T20:29:41.491Z,-2.35
2019-02-04T20:32:12.685Z,-2.31
2019-02-04T20:34:43.792Z,-2.36
2019-02-04T20:37:15.953Z,-2.40
2019-02-04T20:39:47.102Z,-2.33
2019-02-04T20:42:18.267Z,-2.16
2019-02-04T20:44:49.390Z,-1.99
2019-02-04T20:47:20.587Z,-1.93
2019-02-04T20:49:51.602Z,-1.81
2019-02-04T20:52:22.635Z,-1.60
2019-02-04T20:54:53.643Z,-1.63
2019-02-04T20:57:24.805Z,-1.62
2019-02-04T20:59:56.358Z,-1.66
2019-02-04T21:02:27.575Z,-1.56
2019-02-04T21:04:58.812Z,-1.64
2019-02-04T21:07:30.214Z,-1.48
2019-02-04T21:10:01.420Z,-1.47
2019-02-04T21:12:33.865Z,-1.32
2019-02-04T21:15:07.092Z,-1.17
2019-02-04T21:17:38.272Z,-1.04
2019-02-04T21:20:13.640Z,-0.96
2019-02-04T21:22:44.819Z,-0.86
2019-02-04T21:25:16.265Z,-0.73
2019-02-04T21:27:47.536Z,-0.82
2019-02-04T21:30:24.288Z,-0.59
2019-02-04T21:32:55.840Z,-0.34
2019-02-04T21:35:27.169Z,-0.29
2019-02-04T21:37:58.409Z,-0.43
2019-02-04T21:40:30.045Z,-0.48
2019-02-04T21:43:04.844Z,-0.52
2019-02-04T21:45:36.126Z,-0.51
2019-02-04T21:48:07.801Z,-0.41
2019-02-04T21:50:38.981Z,-0.36
2019-02-04T21:53:10.728Z,-0.37
2019-02-04T21:55:42.004Z,-0.11
2019-02-04T21:58:13.250Z,0.03
2019-02-04T22:00:44.550Z,0.01
2019-02-04T22:03:15.658Z,-0.12
2019-02-04T22:05:47.102Z,-0.31
2019-02-04T22:08:18.127Z,-0.33
2019-02-04T22:10:49.329Z,-0.21
2019-02-04T22:13:20.367Z,-0.15
2019-02-04T22:15:51.854Z,-0.12
2019-02-04T22:18:23.052Z,-0.09
2019-02-04T22:20:54.513Z,-0.34
2019-02-04T22:23:26.206Z,-0.25
2019-02-04T22:25:57.850Z,-0.30
2019-02-04T22:28:28.914Z,-0.52
2019-02-04T22:31:00.773Z,-0.31
2019-02-04T22:33:31.842Z,-0.25
2019-02-04T22:36:02.915Z,-0.30
2019-02-04T22:38:34.028Z,-0.32
2019-02-04T22:41:05.686Z,-0.44
2019-02-04T22:43:36.781Z,-0.92
2019-02-04T22:46:08.570Z,-0.40
2019-02-04T22:48:39.590Z,-0.39
2019-02-04T22:51:10.748Z,-0.35
2019-02-04T22:53:41.794Z,-0.37
2019-02-04T22:56:12.981Z,-0.34
2019-02-04T22:58:44.457Z,-0.34
2019-02-04T23:01:56.183Z,-0.38
2019-02-04T23:04:27.698Z,-0.43
2019-02-04T23:06:58.810Z,-0.48
2019-02-04T23:09:31.071Z,-0.50
2019-02-04T23:12:02.153Z,-0.49
2019-02-04T23:14:33.263Z,-0.45
2019-02-04T23:17:04.890Z,-0.45
2019-02-04T23:19:36.623Z,-0.27
2019-02-04T23:22:07.739Z,-0.15
2019-02-04T23:24:38.928Z,-0.17
2019-02-04T23:27:10.256Z,-0.31
2019-02-04T23:29:41.730Z,-0.23
2019-02-04T23:32:12.869Z,-0.18
2019-02-04T23:34:43.937Z,-0.20
2019-02-04T23:37:15.031Z,-0.18
2019-02-04T23:39:46.161Z,-0.26
2019-02-04T23:42:17.760Z,-0.28
2019-02-04T23:44:50.125Z,-0.37
2019-02-04T23:47:21.193Z,-0.37
2019-02-04T23:49:52.319Z,-0.25
2019-02-04T23:52:23.475Z,-0.32
2019-02-04T23:54:54.923Z,-0.64
2019-02-04T23:57:26.073Z,-0.69
2019-02-04T23:59:57.218Z,-0.59
